Legend — WDH2751 — position and weather

sailwx.info

Track history (hours):
 
Tides and Currents Weather Stations Pressure Air Temp Water Temp Dewpoint Dewpoint Depression Visibility Wind Speed Wind Dir Waves Ship Positions

Legend

Owner: Sea Adventure 80 Sportfishing, Encinitas, CA. More information available from US FCC via Universal Licensing System and Coast Guard Vessel Documentation Center.

Last reported at 2017-Dec-11 08:07 UTC. Time now 2017-Dec-12 12:33 UTC.
Position N 32°37' W 117°16'.

Type: Passenger vessel. MMSI: 367600830.

Date/timePositionNaut miles runAvg speedWind from/ knotsBaromVisibWave heightAir tempDewpointWater temp
2017-Dec-11 08:07N 32°37' W 117°16'1 7.8
2017-Dec-11 07:57N 32°36' W 117°17'3 0.1
2017-Dec-09 23:50N 32°39' W 117°16'410.0
2017-Dec-09 23:24N 32°39' W 117°21'4 6.3
2017-Dec-09 22:42N 32°42' W 117°17'5 0.4
2017-Dec-09 08:02N 32°37' W 117°16'18 9.2
2017-Dec-09 06:04N 32°28' W 117°34'1 8.9
2017-Dec-09 05:57N 32°27' W 117°35'4 9.0
2017-Dec-09 05:30N 32°25' W 117°39'6 8.7
2017-Dec-09 04:46N 32°21' W 117°46'9 8.7
2017-Dec-09 03:42N 32°16' W 117°55'2 8.7
2017-Dec-09 03:29N 32°15' W 117°57'19 4.4
2017-Dec-08 23:14N 32°05' W 118°15'34 0.8
2017-Dec-07 03:05N 32°24' W 117°42'34 7.1
2017-Dec-06 22:18N 32°05' W 118°15'0 0.0
2017-Dec-06 21:54N 32°05' W 118°15'0 0.0
2017-Dec-06 21:30N 32°05' W 118°15'0 0.0
2017-Dec-06 21:00N 32°05' W 118°15'  
2017-Dec-03 03:23N 32°05' W 118°15'0 0.8
2017-Dec-03 03:00N 32°05' W 118°15'0 0.0
2017-Dec-03 02:13N 32°05' W 118°15'0 0.0
2017-Dec-03 01:51N 32°05' W 118°15'0 0.0
2017-Dec-03 01:28N 32°05' W 118°15'0 0.0
2017-Dec-03 00:58N 32°05' W 118°15'0 0.0
2017-Dec-02 22:12N 32°05' W 118°15'0 0.0
2017-Dec-02 22:00N 32°05' W 118°15'0 0.0
2017-Dec-02 20:17N 32°05' W 118°15'0 0.0
2017-Dec-02 20:00N 32°05' W 118°15'0 0.0
2017-Dec-02 18:32N 32°05' W 118°15'0 0.0
2017-Dec-02 18:29N 32°05' W 118°15'0 0.0
2017-Dec-02 18:01N 32°05' W 118°15'0 0.0
2017-Dec-02 17:30N 32°05' W 118°15'37 4.0
2017-Dec-02 08:18N 32°25' W 117°39'  
Track history (hours):
 
Tides and Currents Weather Stations Pressure Air Temp Water Temp Dewpoint Dewpoint Depression Visibility Wind Speed Wind Dir Waves Ship Positions

Legend

Owner: Sea Adventure 80 Sportfishing, Encinitas, CA. More information available from US FCC via Universal Licensing System and Coast Guard Vessel Documentation Center.

Last reported at 2017-Dec-11 08:07 UTC. Time now 2017-Dec-12 12:33 UTC.
Position N 32°37' W 117°16'.

Type: Passenger vessel. MMSI: 367600830.

Date/timePositionNaut miles runAvg speedWind from/ knotsBaromVisibWave heightAir tempDewpointWater temp
2017-Dec-11 08:07N 32°37' W 117°16'1 7.8
2017-Dec-11 07:57N 32°36' W 117°17'3 0.1
2017-Dec-09 23:50N 32°39' W 117°16'410.0
2017-Dec-09 23:24N 32°39' W 117°21'4 6.3
2017-Dec-09 22:42N 32°42' W 117°17'5 0.4
2017-Dec-09 08:02N 32°37' W 117°16'18 9.2
2017-Dec-09 06:04N 32°28' W 117°34'1 8.9
2017-Dec-09 05:57N 32°27' W 117°35'4 9.0
2017-Dec-09 05:30N 32°25' W 117°39'6 8.7
2017-Dec-09 04:46N 32°21' W 117°46'9 8.7
2017-Dec-09 03:42N 32°16' W 117°55'2 8.7
2017-Dec-09 03:29N 32°15' W 117°57'19 4.4
2017-Dec-08 23:14N 32°05' W 118°15'34 0.8
2017-Dec-07 03:05N 32°24' W 117°42'34 7.1
2017-Dec-06 22:18N 32°05' W 118°15'0 0.0
2017-Dec-06 21:54N 32°05' W 118°15'0 0.0
2017-Dec-06 21:30N 32°05' W 118°15'0 0.0
2017-Dec-06 21:00N 32°05' W 118°15'  
2017-Dec-03 03:23N 32°05' W 118°15'0 0.8
2017-Dec-03 03:00N 32°05' W 118°15'0 0.0
2017-Dec-03 02:13N 32°05' W 118°15'0 0.0
2017-Dec-03 01:51N 32°05' W 118°15'0 0.0
2017-Dec-03 01:28N 32°05' W 118°15'0 0.0
2017-Dec-03 00:58N 32°05' W 118°15'0 0.0
2017-Dec-02 22:12N 32°05' W 118°15'0 0.0
2017-Dec-02 22:00N 32°05' W 118°15'0 0.0
2017-Dec-02 20:17N 32°05' W 118°15'0 0.0
2017-Dec-02 20:00N 32°05' W 118°15'0 0.0
2017-Dec-02 18:32N 32°05' W 118°15'0 0.0
2017-Dec-02 18:29N 32°05' W 118°15'0 0.0
2017-Dec-02 18:01N 32°05' W 118°15'0 0.0
2017-Dec-02 17:30N 32°05' W 118°15'37 4.0
2017-Dec-02 08:18N 32°25' W 117°39'  

Dump ship's entire track history